Time;durP1;ratioP1;P1;durP2;ratioP2;P2;SDS_P1;SDS_P2;PMS_P1;PMS_P2;Temp;Humidity;BMP_temperature;BMP_pressure;BME280_temperature;BME280_humidity;BME280_pressure;Samples;Min_cycle;Max_cycle;Signal;HPM_P1;HPM_P2
2022/07/28 00:01:48;;;;;;;5.30;1.10;;;;;;;14.11;78.05;98423.41;5066438;28;20342;-67
2022/07/28 00:04:14;;;;;;;1.75;1.20;;;;;;;14.12;78.66;98414.56;5066382;28;20021;-67
2022/07/28 00:06:39;;;;;;;2.67;1.25;;;;;;;14.11;77.52;98415.47;5066319;28;20052;-67
2022/07/28 00:09:04;;;;;;;2.30;1.27;;;;;;;14.13;77.52;98414.50;5066263;28;20030;-67
2022/07/28 00:11:30;;;;;;;2.97;1.35;;;;;;;14.09;78.17;98414.66;5066287;28;20021;-67
2022/07/28 00:13:55;;;;;;;8.52;1.20;;;;;;;14.01;79.13;98416.72;5066284;28;20059;-67
2022/07/28 00:16:21;;;;;;;3.47;1.20;;;;;;;13.93;79.22;98410.84;5066204;28;20449;-67
2022/07/28 00:18:46;;;;;;;2.28;1.33;;;;;;;13.94;78.60;98409.91;5066126;28;20017;-67
2022/07/28 00:21:12;;;;;;;5.15;1.10;;;;;;;13.87;79.02;98403.13;5066096;28;20340;-67
2022/07/28 00:23:37;;;;;;;3.33;1.40;;;;;;;13.77;80.19;98407.03;5066057;28;20078;-67
2022/07/28 00:26:03;;;;;;;7.43;1.45;;;;;;;13.73;79.85;98410.69;5066024;28;20220;-67
2022/07/28 00:28:28;;;;;;;1.98;1.23;;;;;;;13.60;81.01;98409.41;5065808;28;20074;-67
2022/07/28 00:30:56;;;;;;;4.22;1.40;;;;;;;13.52;81.18;98406.16;5065892;28;20021;-67
2022/07/28 00:33:22;;;;;;;3.40;1.33;;;;;;;13.54;80.60;98404.31;5065810;28;20070;-67
2022/07/28 00:35:47;;;;;;;4.38;1.20;;;;;;;13.54;80.85;98407.81;5065819;28;20053;-67
2022/07/28 00:38:12;;;;;;;3.38;1.50;;;;;;;13.52;80.65;98400.88;5065769;28;20017;-67
2022/07/28 00:43:22;;;;;;;4.45;1.25;;;;;;;13.36;82.17;98399.66;5065645;28;20035;-67
2022/07/28 00:45:47;;;;;;;2.25;1.38;;;;;;;13.41;82.36;98405.66;5065587;28;20316;-67
2022/07/28 00:48:13;;;;;;;3.45;1.40;;;;;;;13.36;81.78;98402.31;5065493;28;20316;-67
2022/07/28 00:50:39;;;;;;;3.85;1.25;;;;;;;13.34;81.25;98401.47;5065597;28;20274;-67
2022/07/28 00:53:06;;;;;;;4.53;1.25;;;;;;;13.22;81.77;98396.63;5065463;28;20017;-67
2022/07/28 00:55:31;;;;;;;2.17;1.13;;;;;;;13.15;82.06;98388.03;5065379;28;20025;-67
2022/07/28 00:57:57;;;;;;;2.45;1.33;;;;;;;13.21;81.41;98384.31;5065389;28;20047;-67
2022/07/28 01:00:22;;;;;;;2.92;1.15;;;;;;;13.34;79.52;98385.63;5065295;28;20028;-67
2022/07/28 01:02:48;;;;;;;3.55;1.05;;;;;;;13.45;78.35;98386.13;5065426;28;20077;-67
2022/07/28 01:05:14;;;;;;;1.38;0.93;;;;;;;13.46;78.76;98385.22;5065249;28;20086;-67
2022/07/28 01:08:01;;;;;;;3.65;1.05;;;;;;;13.43;79.53;98385.31;5065051;28;20021;-67
2022/07/28 01:10:41;;;;;;;4.45;1.27;;;;;;;13.33;79.98;98375.97;5065395;28;20023;-67
2022/07/28 01:13:21;;;;;;;7.70;1.55;;;;;;;13.38;79.98;98379.34;5065114;28;20321;-67
2022/07/28 01:16:02;;;;;;;4.38;1.13;;;;;;;13.56;77.90;98376.03;5065022;28;20021;-67
2022/07/28 01:18:34;;;;;;;2.65;1.20;;;;;;;13.71;76.90;98370.22;5065260;28;20241;-67
2022/07/28 01:21:04;;;;;;;1.45;1.00;;;;;;;13.88;74.94;98370.44;5065079;28;20024;-67
2022/07/28 01:23:32;;;;;;;0.95;0.80;;;;;;;13.89;75.51;98373.03;5064975;28;20122;-67
2022/07/28 01:26:25;;;;;;;1.50;0.95;;;;;;;13.83;75.53;98367.13;5064904;28;20035;-67
2022/07/28 01:29:09;;;;;;;3.85;1.10;;;;;;;13.97;73.72;98373.63;5064506;28;20351;-67
2022/07/28 01:31:52;;;;;;;1.23;0.70;;;;;;;14.09;72.99;98369.66;5064698;28;20321;-67
2022/07/28 01:34:24;;;;;;;5.97;1.40;;;;;;;13.96;75.13;98373.69;5064682;28;20351;-67
2022/07/28 01:36:58;;;;;;;4.17;1.07;;;;;;;14.05;73.81;98365.41;5064678;28;20029;-67
2022/07/28 01:39:28;;;;;;;3.85;1.15;;;;;;;14.00;74.07;98362.06;5064844;28;20092;-67
2022/07/28 01:41:54;;;;;;;3.35;1.30;;;;;;;13.87;75.60;98361.66;5064482;28;20070;-67
2022/07/28 01:44:23;;;;;;;1.50;0.90;;;;;;;13.79;75.83;98353.13;5064501;28;20096;-67
2022/07/28 01:46:51;;;;;;;2.97;1.25;;;;;;;13.85;74.10;98352.91;5064488;28;20067;-67
2022/07/28 01:49:20;;;;;;;3.58;1.10;;;;;;;13.69;76.59;98366.75;5064368;28;20216;-67
2022/07/28 01:51:46;;;;;;;2.28;1.10;;;;;;;13.58;76.91;98364.50;5064650;28;20028;-67
2022/07/28 01:54:13;;;;;;;5.97;1.35;;;;;;;13.56;76.49;98357.53;5064324;28;20348;-67
2022/07/28 01:56:41;;;;;;;2.20;0.90;;;;;;;13.51;77.02;98352.41;5064296;28;20386;-67
2022/07/28 01:59:10;;;;;;;2.58;0.75;;;;;;;13.46;76.82;98354.34;5063884;28;20017;-67
2022/07/28 02:01:40;;;;;;;10.88;1.33;;;;;;;13.62;75.34;98344.09;5064191;28;20021;-67
2022/07/28 02:04:08;;;;;;;2.13;1.20;;;;;;;13.62;76.11;98344.09;5064234;28;20240;-67
2022/07/28 02:06:34;;;;;;;6.78;1.05;;;;;;;13.43;77.59;98341.25;5064156;28;20225;-67
2022/07/28 02:09:02;;;;;;;2.67;1.23;;;;;;;13.37;78.75;98340.59;5064075;28;20051;-67
2022/07/28 02:11:39;;;;;;;3.90;1.00;;;;;;;13.26;79.00;98348.03;5064190;28;20025;-67
2022/07/28 02:14:21;;;;;;;7.18;1.00;;;;;;;13.14;79.83;98337.88;5064099;28;20021;-67
2022/07/28 02:16:51;;;;;;;1.25;0.93;;;;;;;13.17;78.24;98335.13;5064022;28;20031;-67
2022/07/28 02:19:19;;;;;;;3.17;1.35;;;;;;;13.16;78.87;98338.69;5064007;28;20035;-67
2022/07/28 02:21:48;;;;;;;3.67;1.17;;;;;;;13.12;79.03;98335.28;5063955;28;20031;-67
2022/07/28 02:24:17;;;;;;;2.33;1.10;;;;;;;13.20;78.25;98329.75;5063928;28;20349;-67
2022/07/28 02:27:00;;;;;;;5.00;1.23;;;;;;;13.21;78.97;98326.19;5063638;28;20032;-67
2022/07/28 02:29:27;;;;;;;5.72;1.17;;;;;;;13.06;79.82;98332.00;5063895;28;20040;-67
2022/07/28 02:32:20;;;;;;;1.88;0.98;;;;;;;12.97;80.63;98327.84;5064277;28;20332;-67
2022/07/28 02:34:48;;;;;;;2.42;1.00;;;;;;;13.02;80.70;98333.88;5063859;28;20096;-67
2022/07/28 02:37:15;;;;;;;1.65;1.00;;;;;;;12.96;81.36;98316.44;5063785;28;20025;-67
2022/07/28 02:39:48;;;;;;;2.75;1.00;;;;;;;12.95;80.70;98316.47;5063746;28;20021;-67
2022/07/28 02:42:17;;;;;;;2.00;1.25;;;;;;;12.90;81.77;98316.63;5063713;28;20028;-67
2022/07/28 02:44:48;;;;;;;2.00;1.05;;;;;;;12.83;81.26;98320.41;5063729;28;20021;-67
2022/07/28 02:47:17;;;;;;;3.50;1.00;;;;;;;12.76;81.62;98318.84;5063811;28;20024;-67
2022/07/28 02:49:45;;;;;;;2.40;1.13;;;;;;;12.65;82.54;98314.84;5063712;28;20039;-67
2022/07/28 02:52:12;;;;;;;2.42;1.02;;;;;;;12.72;82.73;98325.16;5063616;28;20032;-67
2022/07/28 02:54:40;;;;;;;4.00;1.30;;;;;;;12.51;83.28;98311.78;5063684;28;20228;-67
2022/07/28 02:57:06;;;;;;;3.97;1.13;;;;;;;12.52;83.86;98318.78;5063887;28;20024;-67
2022/07/28 02:59:34;;;;;;;3.30;1.60;;;;;;;12.50;83.69;98315.34;5063622;28;20021;-67
2022/07/28 03:01:59;;;;;;;3.40;1.20;;;;;;;12.43;83.90;98313.78;5063525;28;20027;-67
2022/07/28 03:07:11;;;;;;;3.03;1.20;;;;;;;12.39;83.51;98306.91;5063417;28;20028;-67
2022/07/28 03:09:45;;;;;;;3.13;0.90;;;;;;;12.42;83.60;98306.78;5063809;28;20029;-67
2022/07/28 03:12:11;;;;;;;4.10;1.27;;;;;;;12.35;83.60;98303.50;5067625;28;20114;-67
2022/07/28 03:14:38;;;;;;;3.92;1.00;;;;;;;12.30;83.64;98297.50;5067364;28;20027;-67
2022/07/28 03:17:04;;;;;;;2.60;1.35;;;;;;;12.30;83.90;98302.78;5067324;28;20024;-67
2022/07/28 03:19:30;;;;;;;5.15;1.23;;;;;;;12.34;83.74;98309.69;5067258;28;20220;-67
2022/07/28 03:21:55;;;;;;;4.97;0.98;;;;;;;12.29;83.63;98306.34;5067174;28;20028;-67
2022/07/28 03:24:25;;;;;;;2.10;1.05;;;;;;;12.23;83.53;98303.88;5067191;28;20267;-67
2022/07/28 03:27:03;;;;;;;2.80;1.10;;;;;;;12.30;83.13;98302.78;5066937;28;20051;-67
2022/07/28 03:29:31;;;;;;;1.45;0.98;;;;;;;12.34;82.67;98304.41;5067331;28;20029;-67
2022/07/28 03:31:58;;;;;;;3.30;1.23;;;;;;;12.22;83.93;98303.94;5067185;28;20217;-67
2022/07/28 03:34:24;;;;;;;3.00;1.08;;;;;;;12.27;84.40;98302.88;5066931;28;20100;-67
2022/07/28 03:36:55;;;;;;;2.15;0.90;;;;;;;12.34;82.70;98299.13;5066954;28;20025;-67
2022/07/28 03:39:23;;;;;;;5.38;1.52;;;;;;;12.19;84.28;98304.91;5066894;28;20017;-67
2022/07/28 03:41:51;;;;;;;3.70;1.45;;;;;;;12.18;84.30;98304.94;5066845;28;20088;-67
2022/07/28 03:44:17;;;;;;;1.40;0.90;;;;;;;12.19;84.29;98299.63;5066847;28;20048;-67
2022/07/28 03:46:45;;;;;;;4.50;1.70;;;;;;;12.15;84.54;98302.41;5066757;28;20091;-67
2022/07/28 03:49:11;;;;;;;2.13;1.10;;;;;;;12.36;83.41;98302.59;5066846;28;20321;-67
2022/07/28 03:51:37;;;;;;;5.43;0.98;;;;;;;12.46;82.95;98304.00;5066663;28;20135;-67
2022/07/28 03:54:02;;;;;;;3.25;0.90;;;;;;;12.53;82.72;98300.25;5066688;28;20029;-67
2022/07/28 03:56:28;;;;;;;3.90;1.20;;;;;;;12.49;83.14;98303.91;5066638;28;20020;-67
2022/07/28 03:58:53;;;;;;;4.05;1.00;;;;;;;12.67;80.54;98303.34;5066543;28;20021;-67
2022/07/28 04:01:19;;;;;;;4.80;1.10;;;;;;;12.64;81.58;98303.44;5066720;28;20017;-67
2022/07/28 04:03:44;;;;;;;5.22;1.10;;;;;;;12.76;79.95;98303.00;5066496;28;20088;-67
2022/07/28 04:06:13;;;;;;;4.68;0.82;;;;;;;13.06;76.65;98300.31;5066445;28;20047;-67
2022/07/28 04:08:39;;;;;;;5.93;1.35;;;;;;;13.15;77.80;98303.47;5066290;28;20039;-67
2022/07/28 04:11:04;;;;;;;2.72;1.33;;;;;;;13.18;78.09;98297.22;5066299;28;20025;-67
2022/07/28 04:13:35;;;;;;;3.45;0.90;;;;;;;13.19;77.99;98301.59;5066256;28;20021;-67
2022/07/28 04:16:01;;;;;;;7.55;1.15;;;;;;;13.24;77.34;98299.63;5066244;28;20033;-67
2022/07/28 04:18:27;;;;;;;6.75;1.85;;;;;;;13.18;79.31;98295.44;5066181;28;20025;-67
2022/07/28 04:20:52;;;;;;;3.15;1.20;;;;;;;13.20;78.75;98292.75;5065756;28;20078;-67
2022/07/28 04:23:19;;;;;;;5.35;1.10;;;;;;;13.16;79.20;98291.13;5066043;28;20033;-67
2022/07/28 04:25:45;;;;;;;2.58;0.95;;;;;;;13.34;76.62;98295.75;5066308;28;20080;-67
2022/07/28 04:28:10;;;;;;;2.85;0.93;;;;;;;13.42;77.47;98286.66;5065687;28;20041;-67
2022/07/28 04:30:35;;;;;;;3.45;0.98;;;;;;;13.31;77.87;98291.44;5066027;28;20021;-67
2022/07/28 04:33:01;;;;;;;3.88;1.02;;;;;;;13.49;75.17;98289.91;5065888;28;20044;-67
2022/07/28 04:35:27;;;;;;;5.60;1.45;;;;;;;13.58;76.63;98294.88;5065856;28;20020;-67
2022/07/28 04:37:59;;;;;;;2.35;0.70;;;;;;;13.53;79.22;98302.09;5066034;28;20013;-67
2022/07/28 04:40:25;;;;;;;;;;;;;;;13.50;79.10;98295.16;5066168;28;20216;-67
2022/07/28 04:42:51;;;;;;;4.03;1.17;;;;;;;13.59;78.42;98307.16;5065893;28;19905;-67
2022/07/28 04:45:16;;;;;;;2.22;0.93;;;;;;;13.62;78.53;98297.34;5065668;28;20027;-67
2022/07/28 04:47:41;;;;;;;4.03;1.27;;;;;;;13.75;77.61;98303.03;5065565;28;20033;-67
2022/07/28 04:50:09;;;;;;;3.10;1.20;;;;;;;13.81;77.82;98294.88;5065597;28;20025;-67
2022/07/28 04:52:35;;;;;;;4.85;1.45;;;;;;;13.89;79.97;98298.13;5065548;28;20028;-67
2022/07/28 04:55:00;;;;;;;4.45;1.33;;;;;;;13.85;79.52;98294.72;5065463;28;20313;-67
2022/07/28 04:57:27;;;;;;;1.80;0.98;;;;;;;14.01;77.71;98300.28;5065409;28;20058;-67
2022/07/28 04:59:53;;;;;;;4.95;0.95;;;;;;;14.14;73.83;98293.63;5065641;28;20458;-67
2022/07/28 05:02:19;;;;;;;6.20;1.10;;;;;;;14.41;70.46;98300.50;5065350;28;20217;-67
2022/07/28 05:04:44;;;;;;;1.30;0.80;;;;;;;14.54;74.93;98312.31;5065222;28;20031;-67
2022/07/28 05:07:10;;;;;;;3.45;1.50;;;;;;;14.43;78.99;98314.53;5065171;28;20021;-67
2022/07/28 05:09:35;;;;;;;3.40;1.00;;;;;;;14.46;76.67;98309.13;5065254;28;20320;-67
2022/07/28 05:12:01;;;;;;;2.40;0.90;;;;;;;14.59;76.09;98310.38;5065164;28;20044;-67
2022/07/28 05:14:26;;;;;;;5.50;1.05;;;;;;;14.67;74.57;98310.91;5065073;28;20316;-67
2022/07/28 05:16:52;;;;;;;1.67;0.73;;;;;;;14.91;69.30;98310.75;5065055;28;20048;-67
2022/07/28 05:19:17;;;;;;;2.95;1.27;;;;;;;15.11;68.71;98305.50;5065015;28;20017;-67
2022/07/28 05:21:43;;;;;;;3.50;0.95;;;;;;;15.28;73.67;98312.69;5065180;28;20044;-67
2022/07/28 05:24:09;;;;;;;4.95;1.20;;;;;;;15.85;68.99;98315.47;5064948;28;20047;-67
2022/07/28 05:26:35;;;;;;;1.65;1.15;;;;;;;15.87;69.76;98321.56;5064656;28;20340;-67
2022/07/28 05:29:00;;;;;;;6.18;1.10;;;;;;;16.19;67.58;98317.44;5064912;28;20198;-67
2022/07/28 05:31:26;;;;;;;2.75;0.90;;;;;;;16.04;66.61;98312.84;5064766;28;20025;-67
2022/07/28 05:33:51;;;;;;;3.63;0.90;;;;;;;16.05;65.94;98312.78;5063998;28;20328;-67
2022/07/28 05:36:17;;;;;;;4.35;1.00;;;;;;;16.11;65.85;98316.94;5064712;28;20044;-67
2022/07/28 05:38:42;;;;;;;6.53;1.20;;;;;;;16.10;66.57;98321.38;5064684;28;20017;-67
2022/07/28 05:41:07;;;;;;;1.90;0.90;;;;;;;16.27;64.78;98313.50;5064545;28;20027;-67
2022/07/28 05:43:36;;;;;;;5.15;0.85;;;;;;;16.42;63.70;98318.06;5064553;28;20253;-67
2022/07/28 05:46:01;;;;;;;5.60;1.20;;;;;;;16.62;63.99;98315.38;5064752;28;20097;-67
2022/07/28 05:48:27;;;;;;;4.28;1.40;;;;;;;16.75;62.62;98315.63;5064377;28;20320;-67
2022/07/28 05:50:53;;;;;;;3.80;1.00;;;;;;;16.83;63.03;98319.63;5064469;28;20029;-67
2022/07/28 05:53:20;;;;;;;3.65;1.08;;;;;;;17.33;61.12;98313.59;5064408;28;20316;-67
2022/07/28 05:55:45;;;;;;;5.07;0.95;;;;;;;17.63;59.90;98318.22;5064603;28;20063;-67
2022/07/28 05:58:11;;;;;;;3.28;0.93;;;;;;;18.10;59.39;98324.50;5064348;28;20017;-67
2022/07/28 06:00:36;;;;;;;6.32;1.30;;;;;;;18.24;59.04;98315.75;5064226;28;20040;-67
2022/07/28 06:03:02;;;;;;;7.30;1.30;;;;;;;18.11;58.07;98309.38;5064496;28;20032;-67
2022/07/28 06:05:29;;;;;;;1.95;0.80;;;;;;;17.85;59.41;98308.16;5064315;28;20370;-67
2022/07/28 06:07:56;;;;;;;2.25;0.80;;;;;;;17.89;59.68;98314.16;5064360;28;20017;-67
2022/07/28 06:10:24;;;;;;;2.75;0.90;;;;;;;17.80;59.37;98317.28;5064114;28;20247;-67
2022/07/28 06:12:53;;;;;;;2.95;0.90;;;;;;;17.72;59.33;98308.88;5064057;28;20171;-67
2022/07/28 06:15:24;;;;;;;7.47;1.35;;;;;;;17.76;59.43;98311.28;5064101;28;20028;-67
2022/07/28 06:17:52;;;;;;;2.70;0.83;;;;;;;17.83;59.50;98320.66;5064328;28;20017;-67
2022/07/28 06:20:18;;;;;;;5.82;1.30;;;;;;;17.81;59.37;98308.38;5064021;28;20047;-67
2022/07/28 06:22:46;;;;;;;5.82;1.48;;;;;;;18.01;58.90;98313.50;5064018;28;20021;-67
2022/07/28 06:25:16;;;;;;;1.90;0.80;;;;;;;18.24;59.39;98323.75;5063969;28;20048;-67
2022/07/28 06:27:44;;;;;;;2.33;0.70;;;;;;;18.68;58.19;98327.50;5063540;28;20033;-67
2022/07/28 06:30:10;;;;;;;4.93;1.17;;;;;;;18.73;57.58;98325.47;5063972;28;20074;-67
2022/07/28 06:32:35;;;;;;;5.72;1.38;;;;;;;19.21;56.73;98327.97;5063885;28;20084;-67
2022/07/28 06:35:01;;;;;;;6.65;1.20;;;;;;;19.15;56.93;98322.97;5064081;28;20023;-67
2022/07/28 06:37:26;;;;;;;5.40;0.98;;;;;;;20.22;56.22;98346.69;5063834;28;20313;-67
2022/07/28 06:39:51;;;;;;;3.85;1.13;;;;;;;20.79;53.23;98337.63;5063759;28;20033;-67
2022/07/28 06:42:17;;;;;;;2.20;0.95;;;;;;;22.70;48.77;98347.63;5063788;28;20029;-67
2022/07/28 06:44:42;;;;;;;4.93;0.95;;;;;;;23.26;47.21;98336.28;5065962;28;20021;-67
2022/07/28 06:47:07;;;;;;;2.83;1.05;;;;;;;24.35;45.34;98340.25;5067891;28;20048;-67
2022/07/28 06:49:33;;;;;;;6.35;1.17;;;;;;;25.48;42.21;98338.13;5067889;28;20020;-67
2022/07/28 06:51:59;;;;;;;4.18;1.50;;;;;;;26.36;41.04;98345.75;5067743;28;20328;-67
2022/07/28 06:54:24;;;;;;;2.00;1.10;;;;;;;25.27;41.82;98319.19;5067738;28;20028;-67
2022/07/28 06:56:51;;;;;;;4.10;1.10;;;;;;;23.80;44.34;98307.88;5067687;28;20036;-67
2022/07/28 06:59:17;;;;;;;4.28;1.60;;;;;;;24.36;45.54;98312.38;5067615;28;20036;-67
2022/07/28 07:01:42;;;;;;;5.15;1.10;;;;;;;25.83;42.59;98323.38;5067658;28;20021;-67
2022/07/28 07:04:07;;;;;;;6.32;1.40;;;;;;;26.90;39.69;98349.81;5067590;28;20325;-67
2022/07/28 07:06:33;;;;;;;4.78;1.60;;;;;;;27.69;39.37;98348.84;5067517;28;20028;-67
2022/07/28 07:08:58;;;;;;;3.60;1.33;;;;;;;27.36;38.33;98335.72;5067370;28;20094;-67
2022/07/28 07:11:25;;;;;;;5.63;1.40;;;;;;;27.68;39.17;98333.59;5067452;28;20316;-67
2022/07/28 07:13:51;;;;;;;1.55;1.02;;;;;;;28.42;38.61;98337.34;5067367;28;20055;-67
2022/07/28 07:16:17;;;;;;;6.82;1.45;;;;;;;26.85;40.20;98324.22;5067594;28;20025;-67
2022/07/28 07:18:42;;;;;;;5.30;1.30;;;;;;;27.49;39.60;98324.66;5067274;28;20021;-67
2022/07/28 07:21:07;;;;;;;2.28;1.00;;;;;;;28.42;37.88;98327.38;5067295;28;20028;-68
2022/07/28 07:23:34;;;;;;;6.82;1.50;;;;;;;26.18;40.33;98301.47;5067228;28;20096;-68
2022/07/28 07:25:59;;;;;;;4.40;1.60;;;;;;;27.42;40.51;98329.75;5067456;28;20309;-68
2022/07/28 07:28:25;;;;;;;4.00;1.58;;;;;;;28.47;38.20;98335.09;5066852;28;20100;-68
2022/07/28 07:30:50;;;;;;;5.15;1.38;;;;;;;29.92;37.72;98343.03;5067080;28;20186;-68
2022/07/28 07:33:15;;;;;;;4.10;1.33;;;;;;;29.82;37.05;98336.84;5066985;28;20021;-68
2022/07/28 07:35:41;;;;;;;4.10;1.52;;;;;;;29.67;37.11;98335.72;5067003;28;20035;-68
2022/07/28 07:38:07;;;;;;;3.58;1.40;;;;;;;29.79;36.78;98326.31;5066926;28;20024;-68
2022/07/28 07:40:33;;;;;;;10.88;1.35;;;;;;;30.16;36.21;98325.09;5067164;28;20029;-68
2022/07/28 07:42:58;;;;;;;4.60;1.50;;;;;;;30.51;35.02;98327.72;5066879;28;20334;-68
2022/07/28 07:45:24;;;;;;;6.22;1.40;;;;;;;30.55;36.15;98325.53;5066811;28;20259;-68
2022/07/28 07:47:49;;;;;;;5.22;1.75;;;;;;;30.23;36.85;98314.47;5066706;28;20053;-68
2022/07/28 07:50:14;;;;;;;7.15;1.77;;;;;;;30.22;36.20;98318.19;5066741;28;20024;-68
2022/07/28 07:52:40;;;;;;;7.55;1.73;;;;;;;28.89;37.86;98314.66;5066772;28;20074;-68
2022/07/28 07:55:06;;;;;;;5.35;1.70;;;;;;;27.11;40.52;98287.59;5066519;28;20027;-68
2022/07/28 07:57:31;;;;;;;5.47;1.48;;;;;;;25.97;43.08;98282.63;5066367;28;20017;-68
2022/07/28 07:59:57;;;;;;;4.03;1.73;;;;;;;25.41;45.09;98288.44;5066537;28;20024;-68
2022/07/28 08:02:22;;;;;;;8.02;1.73;;;;;;;26.49;42.85;98300.47;5066502;28;20028;-68
2022/07/28 08:04:47;;;;;;;3.13;1.30;;;;;;;28.34;40.64;98319.13;5066512;28;20139;-68
2022/07/28 08:07:13;;;;;;;3.42;1.42;;;;;;;28.17;38.98;98309.06;5066511;28;20100;-68
2022/07/28 08:09:38;;;;;;;8.45;1.20;;;;;;;28.56;39.42;98307.09;5066345;28;20029;-68
2022/07/28 08:12:04;;;;;;;7.85;1.33;;;;;;;28.55;39.03;98306.25;5066279;28;20021;-68
2022/07/28 08:14:29;;;;;;;11.52;2.00;;;;;;;28.67;39.37;98299.63;5066243;28;20049;-68
2022/07/28 08:16:57;;;;;;;7.82;1.98;;;;;;;29.34;38.81;98298.38;5066243;28;20021;-68
2022/07/28 08:19:22;;;;;;;5.50;1.70;;;;;;;28.96;38.88;98292.22;5066113;28;20021;-68
2022/07/28 08:21:48;;;;;;;5.13;1.85;;;;;;;29.38;38.99;98288.97;5066128;28;20029;-68
2022/07/28 08:24:14;;;;;;;5.75;1.85;;;;;;;29.44;38.24;98300.03;5066110;28;20321;-68
2022/07/28 08:26:39;;;;;;;5.82;1.92;;;;;;;28.90;38.25;98306.38;5066105;28;20387;-68
2022/07/28 08:29:05;;;;;;;4.00;1.90;;;;;;;28.26;39.75;98305.50;5065837;28;20028;-68
2022/07/28 08:31:30;;;;;;;5.95;1.80;;;;;;;27.25;41.75;98284.53;5065925;28;20273;-68
2022/07/28 08:33:57;;;;;;;3.88;2.10;;;;;;;26.58;43.36;98278.06;5065928;28;20190;-68
2022/07/28 08:36:22;;;;;;;6.82;2.10;;;;;;;26.52;43.64;98267.81;5065852;28;20025;-68
2022/07/28 08:38:48;;;;;;;8.95;2.30;;;;;;;26.72;44.31;98269.59;5065755;28;20028;-68
2022/07/28 08:41:41;;;;;;;6.53;2.80;;;;;;;27.47;43.48;98289.66;5065764;28;20346;-68
2022/07/28 08:44:09;;;;;;;8.98;2.60;;;;;;;29.10;40.41;98291.72;5061733;28;20039;-68
2022/07/28 08:46:36;;;;;;;6.00;2.40;;;;;;;30.04;38.77;98303.78;5065665;28;20364;-68
2022/07/28 08:49:07;;;;;;;4.80;2.67;;;;;;;29.92;38.15;98291.47;5065620;28;20021;-68
2022/07/28 08:51:32;;;;;;;8.93;2.83;;;;;;;31.01;37.57;98289.75;5065668;28;20021;-68
2022/07/28 08:53:58;;;;;;;9.65;2.75;;;;;;;31.25;36.58;98287.09;5065532;28;20051;-68
2022/07/28 08:56:24;;;;;;;5.80;2.70;;;;;;;30.68;36.70;98283.31;5065438;28;20020;-68
2022/07/28 08:58:49;;;;;;;8.63;3.10;;;;;;;30.72;37.61;98287.41;5065404;28;20029;-68
2022/07/28 09:01:15;;;;;;;6.25;3.30;;;;;;;30.28;38.33;98280.38;5065379;28;20092;-68
2022/07/28 09:03:41;;;;;;;9.00;2.70;;;;;;;31.16;37.11;98296.22;5065308;28;20081;-68
2022/07/28 09:06:07;;;;;;;7.82;3.58;;;;;;;31.48;36.95;98290.91;5065319;28;20031;-68
2022/07/28 09:08:32;;;;;;;12.15;3.97;;;;;;;31.12;36.89;98275.84;5064052;28;20044;-68
2022/07/28 09:10:58;;;;;;;5.63;3.35;;;;;;;30.57;37.92;98274.59;5065424;28;20063;-68
2022/07/28 09:13:23;;;;;;;7.93;3.60;;;;;;;30.72;37.94;98286.56;5065139;28;20070;-68
2022/07/28 09:15:49;;;;;;;7.05;3.65;;;;;;;30.56;37.84;98279.19;5065108;28;20028;-68
2022/07/28 09:18:16;;;;;;;6.43;3.25;;;;;;;30.16;38.44;98269.94;5065288;28;20084;-68
2022/07/28 09:20:42;;;;;;;7.90;3.58;;;;;;;30.23;39.19;98271.03;5065008;28;20024;-68
2022/07/28 09:23:09;;;;;;;6.88;3.17;;;;;;;31.13;37.75;98283.00;5065187;28;20032;-68
2022/07/28 09:25:34;;;;;;;9.13;4.20;;;;;;;30.74;37.31;98270.97;5064921;28;20032;-68
2022/07/28 09:28:10;;;;;;;9.13;3.80;;;;;;;30.86;37.47;98269.66;5064602;28;20283;-68
2022/07/28 09:30:40;;;;;;;8.15;3.50;;;;;;;31.34;37.61;98277.97;5064928;28;20024;-68
2022/07/28 09:33:19;;;;;;;8.38;4.03;;;;;;;31.29;36.54;98266.75;5065051;28;20074;-68
2022/07/28 09:35:51;;;;;;;8.88;3.50;;;;;;;31.67;35.91;98268.81;5064751;28;20020;-68
2022/07/28 09:38:17;;;;;;;;;;;;;;;31.56;36.96;98255.53;5065202;28;20051;-68
2022/07/28 09:40:44;;;;;;;5.90;3.38;;;;;;;32.07;36.16;98285.16;5064873;28;20208;-68
2022/07/28 09:43:09;;;;;;;8.38;3.85;;;;;;;30.77;36.47;98246.19;5064823;28;20095;-68
2022/07/28 09:45:35;;;;;;;7.35;3.63;;;;;;;31.16;36.92;98255.44;5064627;28;20340;-68
2022/07/28 09:48:09;;;;;;;6.00;3.90;;;;;;;30.68;37.33;98247.13;5064455;28;20081;-68
2022/07/28 09:50:35;;;;;;;7.28;3.70;;;;;;;30.59;37.98;98250.84;5064742;28;20059;-68
2022/07/28 09:53:19;;;;;;;7.00;3.63;;;;;;;30.83;37.39;98237.38;5064426;28;20020;-68
2022/07/28 09:56:05;;;;;;;6.40;3.92;;;;;;;31.07;37.63;98229.28;5064375;28;20031;-68
2022/07/28 09:58:31;;;;;;;7.78;4.10;;;;;;;31.61;36.69;98234.13;5064334;28;20392;-68
2022/07/28 10:01:08;;;;;;;9.32;4.03;;;;;;;31.57;38.56;98248.25;5064553;28;20025;-68
2022/07/28 10:03:42;;;;;;;6.35;3.95;;;;;;;31.23;36.57;98234.75;5064534;28;20021;-68
2022/07/28 10:06:13;;;;;;;9.38;3.97;;;;;;;30.95;37.78;98236.06;5064219;28;20025;-68
2022/07/28 10:08:39;;;;;;;7.88;3.65;;;;;;;31.01;37.45;98232.66;5064382;28;20364;-68
2022/07/28 10:11:04;;;;;;;7.68;4.10;;;;;;;31.25;37.28;98238.13;5064096;28;20024;-68
2022/07/28 10:13:30;;;;;;;8.50;4.10;;;;;;;31.11;37.37;98230.66;5064346;28;20071;-68
2022/07/28 10:16:11;;;;;;;8.02;3.88;;;;;;;30.97;37.71;98232.13;5064075;28;20047;-68
2022/07/28 10:18:40;;;;;;;9.95;4.22;;;;;;;31.42;37.52;98239.03;5063740;28;20017;-68
2022/07/28 10:21:12;;;;;;;8.23;4.00;;;;;;;30.90;37.85;98222.09;5064004;28;20256;-68
2022/07/28 10:23:38;;;;;;;9.30;4.30;;;;;;;30.63;38.18;98227.78;5063931;28;20089;-68
2022/07/28 10:26:14;;;;;;;8.45;4.47;;;;;;;30.69;39.10;98224.41;5063983;28;20123;-68
2022/07/28 10:28:45;;;;;;;6.57;4.28;;;;;;;31.51;37.62;98233.41;5063629;28;20044;-68
2022/07/28 10:31:16;;;;;;;8.60;4.40;;;;;;;31.44;37.89;98232.41;5064119;28;20048;-68
2022/07/28 10:33:48;;;;;;;7.53;3.83;;;;;;;30.65;38.42;98209.41;5063840;28;20017;-68
2022/07/28 10:36:21;;;;;;;8.95;4.80;;;;;;;30.44;39.36;98217.16;5063872;28;20315;-68
2022/07/28 10:38:48;;;;;;;10.65;4.72;;;;;;;30.13;39.03;98221.38;5063866;28;20021;-68
2022/07/28 10:41:17;;;;;;;7.78;4.30;;;;;;;29.75;39.51;98216.38;5063800;28;20024;-68
2022/07/28 10:43:43;;;;;;;6.13;4.13;;;;;;;29.83;40.16;98216.47;5063730;28;20029;-68
2022/07/28 10:46:09;;;;;;;7.82;4.28;;;;;;;30.06;39.41;98209.47;5063758;28;20031;-68
2022/07/28 10:48:37;;;;;;;6.72;4.35;;;;;;;29.89;39.96;98213.13;5063738;28;20275;-68
2022/07/28 10:51:03;;;;;;;7.25;4.22;;;;;;;29.72;40.06;98211.28;5063646;28;20025;-68
2022/07/28 10:53:39;;;;;;;8.13;3.75;;;;;;;29.90;39.87;98212.09;5063669;28;20020;-68
2022/07/28 10:56:14;;;;;;;11.15;4.30;;;;;;;29.05;41.53;98212.72;5063711;28;20304;-68
2022/07/28 10:58:49;;;;;;;7.55;3.95;;;;;;;28.89;41.24;98203.56;5063695;28;20021;-68
2022/07/28 11:01:38;;;;;;;9.70;3.97;;;;;;;29.15;41.09;98189.13;5063621;28;20091;-68
2022/07/28 11:04:05;;;;;;;9.00;4.63;;;;;;;28.85;42.06;98189.44;5063600;28;20029;-68
2022/07/28 11:06:35;;;;;;;9.30;4.50;;;;;;;28.84;42.39;98198.59;5063552;28;20313;-68
2022/07/28 11:09:16;;;;;;;5.72;3.95;;;;;;;28.56;42.36;98194.22;5063686;28;20044;-68
2022/07/28 11:11:41;;;;;;;9.95;4.38;;;;;;;28.09;43.13;98195.28;5063545;28;20079;-68
2022/07/28 11:14:21;;;;;;;9.73;4.60;;;;;;;28.35;42.79;98196.28;5063535;28;20028;-68
2022/07/28 11:17:07;;;;;;;10.00;4.10;;;;;;;28.11;43.05;98193.28;5063381;28;20249;-68
2022/07/28 11:19:44;;;;;;;7.72;3.92;;;;;;;27.96;43.42;98196.63;5063299;28;20020;-68
2022/07/28 11:24:59;;;;;;;7.03;3.95;;;;;;;27.86;43.58;98191.25;5063693;28;20032;-68
2022/07/28 11:27:40;;;;;;;6.55;4.30;;;;;;;27.65;44.05;98190.56;5063067;28;20286;-68
2022/07/28 11:30:07;;;;;;;9.95;3.38;;;;;;;27.67;44.36;98198.53;5063444;28;20324;-68
2022/07/28 11:32:53;;;;;;;6.82;4.13;;;;;;;27.64;43.91;98191.56;5066574;28;20017;-68
2022/07/28 11:35:20;;;;;;;6.47;3.42;;;;;;;27.82;43.49;98187.09;5067084;28;20029;-68
2022/07/28 11:38:01;;;;;;;6.07;3.63;;;;;;;27.70;43.60;98182.88;5067260;28;20328;-68
2022/07/28 11:40:31;;;;;;;7.85;3.80;;;;;;;27.47;44.55;98178.81;5066924;28;20029;-68
2022/07/28 11:46:00;;;;;;;12.25;3.45;;;;;;;27.30;44.67;98174.13;5067134;28;20028;-68
2022/07/28 11:48:26;;;;;;;9.65;3.33;;;;;;;27.32;44.54;98182.06;5066737;28;20025;-68
2022/07/28 11:51:04;;;;;;;9.15;3.63;;;;;;;27.04;45.23;98168.44;5066721;28;20260;-68